sensor_id;sensor_type;location;lat;lon;timestamp;P1;durP1;ratioP1;P2;durP2;ratioP2
5696;SDS011;2873;50.966;7.210;2024-03-23T00:55:55;8.38;;;5.40;;
5696;SDS011;2873;50.966;7.210;2024-03-23T00:58:21;9.80;;;5.70;;
5696;SDS011;2873;50.966;7.210;2024-03-23T01:00:47;7.22;;;5.32;;
5696;SDS011;2873;50.966;7.210;2024-03-23T01:03:12;8.83;;;5.17;;
5696;SDS011;2873;50.966;7.210;2024-03-23T01:05:38;11.50;;;5.60;;
5696;SDS011;2873;50.966;7.210;2024-03-23T01:08:03;7.37;;;5.50;;
5696;SDS011;2873;50.966;7.210;2024-03-23T01:10:30;8.95;;;5.60;;
5696;SDS011;2873;50.966;7.210;2024-03-23T01:12:55;8.40;;;5.10;;
5696;SDS011;2873;50.966;7.210;2024-03-23T01:15:21;10.10;;;4.90;;
5696;SDS011;2873;50.966;7.210;2024-03-23T01:17:46;10.80;;;5.30;;
5696;SDS011;2873;50.966;7.210;2024-03-23T01:20:12;9.00;;;4.80;;
5696;SDS011;2873;50.966;7.210;2024-03-23T01:22:38;8.70;;;4.80;;
5696;SDS011;2873;50.966;7.210;2024-03-23T01:25:03;9.65;;;5.22;;
5696;SDS011;2873;50.966;7.210;2024-03-23T01:27:29;9.27;;;5.10;;
5696;SDS011;2873;50.966;7.210;2024-03-23T01:29:54;7.45;;;5.18;;
5696;SDS011;2873;50.966;7.210;2024-03-23T01:32:20;8.13;;;5.20;;
5696;SDS011;2873;50.966;7.210;2024-03-23T01:34:46;9.10;;;5.40;;
5696;SDS011;2873;50.966;7.210;2024-03-23T01:37:12;10.32;;;4.80;;
5696;SDS011;2873;50.966;7.210;2024-03-23T01:39:37;9.07;;;4.90;;
5696;SDS011;2873;50.966;7.210;2024-03-23T01:42:03;9.10;;;5.25;;
5696;SDS011;2873;50.966;7.210;2024-03-23T01:44:29;6.55;;;4.40;;
5696;SDS011;2873;50.966;7.210;2024-03-23T01:46:54;5.80;;;4.20;;
5696;SDS011;2873;50.966;7.210;2024-03-23T01:49:20;10.30;;;4.07;;
5696;SDS011;2873;50.966;7.210;2024-03-23T01:51:46;7.93;;;3.90;;
5696;SDS011;2873;50.966;7.210;2024-03-23T01:54:11;5.05;;;2.92;;
5696;SDS011;2873;50.966;7.210;2024-03-23T01:56:37;5.38;;;3.40;;
5696;SDS011;2873;50.966;7.210;2024-03-23T01:59:03;5.30;;;3.37;;
5696;SDS011;2873;50.966;7.210;2024-03-23T02:01:29;6.50;;;3.30;;
5696;SDS011;2873;50.966;7.210;2024-03-23T02:03:55;5.63;;;3.38;;
5696;SDS011;2873;50.966;7.210;2024-03-23T02:06:21;6.65;;;3.50;;
5696;SDS011;2873;50.966;7.210;2024-03-23T02:08:48;10.05;;;3.88;;
5696;SDS011;2873;50.966;7.210;2024-03-23T02:11:14;5.67;;;3.83;;
5696;SDS011;2873;50.966;7.210;2024-03-23T02:13:40;7.13;;;4.40;;
5696;SDS011;2873;50.966;7.210;2024-03-23T02:16:05;6.93;;;4.13;;
5696;SDS011;2873;50.966;7.210;2024-03-23T02:18:31;7.85;;;4.30;;
5696;SDS011;2873;50.966;7.210;2024-03-23T02:20:57;6.22;;;4.03;;
5696;SDS011;2873;50.966;7.210;2024-03-23T02:23:23;8.05;;;3.28;;
5696;SDS011;2873;50.966;7.210;2024-03-23T02:25:49;5.85;;;3.55;;
5696;SDS011;2873;50.966;7.210;2024-03-23T02:28:15;4.05;;;2.40;;
5696;SDS011;2873;50.966;7.210;2024-03-23T02:30:41;3.40;;;2.10;;
5696;SDS011;2873;50.966;7.210;2024-03-23T02:33:07;4.30;;;2.30;;
5696;SDS011;2873;50.966;7.210;2024-03-23T02:35:33;2.90;;;1.70;;
5696;SDS011;2873;50.966;7.210;2024-03-23T02:37:59;5.87;;;1.70;;
5696;SDS011;2873;50.966;7.210;2024-03-23T02:40:24;3.60;;;1.80;;
5696;SDS011;2873;50.966;7.210;2024-03-23T02:42:50;2.60;;;1.90;;
5696;SDS011;2873;50.966;7.210;2024-03-23T02:45:16;3.92;;;2.08;;
5696;SDS011;2873;50.966;7.210;2024-03-23T02:47:42;3.42;;;1.90;;
5696;SDS011;2873;50.966;7.210;2024-03-23T02:50:07;2.33;;;1.80;;
5696;SDS011;2873;50.966;7.210;2024-03-23T02:52:34;3.20;;;1.55;;
5696;SDS011;2873;50.966;7.210;2024-03-23T02:55:00;2.45;;;1.80;;
5696;SDS011;2873;50.966;7.210;2024-03-23T02:57:27;3.90;;;1.45;;
5696;SDS011;2873;50.966;7.210;2024-03-23T02:59:53;3.65;;;1.80;;
5696;SDS011;2873;50.966;7.210;2024-03-23T03:02:18;3.00;;;1.70;;
5696;SDS011;2873;50.966;7.210;2024-03-23T03:04:44;5.50;;;2.08;;
5696;SDS011;2873;50.966;7.210;2024-03-23T03:07:10;3.13;;;2.00;;
5696;SDS011;2873;50.966;7.210;2024-03-23T03:09:36;5.22;;;1.90;;
5696;SDS011;2873;50.966;7.210;2024-03-23T03:12:03;6.03;;;1.98;;
5696;SDS011;2873;50.966;7.210;2024-03-23T03:14:32;1.90;;;1.40;;
5696;SDS011;2873;50.966;7.210;2024-03-23T03:16:58;5.72;;;1.70;;
5696;SDS011;2873;50.966;7.210;2024-03-23T03:19:23;2.30;;;1.40;;
5696;SDS011;2873;50.966;7.210;2024-03-23T03:21:49;4.43;;;1.40;;
5696;SDS011;2873;50.966;7.210;2024-03-23T03:24:14;4.30;;;1.88;;
5696;SDS011;2873;50.966;7.210;2024-03-23T03:26:40;4.73;;;1.80;;
5696;SDS011;2873;50.966;7.210;2024-03-23T03:29:06;3.83;;;1.10;;
5696;SDS011;2873;50.966;7.210;2024-03-23T03:31:31;5.47;;;1.30;;
5696;SDS011;2873;50.966;7.210;2024-03-23T03:33:57;6.65;;;1.58;;
5696;SDS011;2873;50.966;7.210;2024-03-23T03:36:22;4.70;;;1.67;;
5696;SDS011;2873;50.966;7.210;2024-03-23T03:38:48;3.55;;;1.20;;
5696;SDS011;2873;50.966;7.210;2024-03-23T03:41:13;3.10;;;1.30;;
5696;SDS011;2873;50.966;7.210;2024-03-23T03:43:39;6.68;;;1.40;;
5696;SDS011;2873;50.966;7.210;2024-03-23T03:46:05;5.60;;;1.30;;
5696;SDS011;2873;50.966;7.210;2024-03-23T03:48:32;3.65;;;1.30;;
5696;SDS011;2873;50.966;7.210;2024-03-23T03:50:58;2.38;;;1.50;;
5696;SDS011;2873;50.966;7.210;2024-03-23T03:53:24;4.68;;;1.17;;
5696;SDS011;2873;50.966;7.210;2024-03-23T03:55:50;4.45;;;1.42;;
5696;SDS011;2873;50.966;7.210;2024-03-23T03:58:15;5.20;;;1.47;;
5696;SDS011;2873;50.966;7.210;2024-03-23T04:00:41;4.70;;;1.47;;
5696;SDS011;2873;50.966;7.210;2024-03-23T04:03:06;3.90;;;1.40;;
5696;SDS011;2873;50.966;7.210;2024-03-23T04:05:32;4.80;;;1.67;;
5696;SDS011;2873;50.966;7.210;2024-03-23T04:07:58;2.53;;;1.60;;
5696;SDS011;2873;50.966;7.210;2024-03-23T04:10:23;4.88;;;1.90;;
5696;SDS011;2873;50.966;7.210;2024-03-23T04:12:49;5.82;;;1.80;;
5696;SDS011;2873;50.966;7.210;2024-03-23T04:15:15;7.97;;;2.67;;
5696;SDS011;2873;50.966;7.210;2024-03-23T04:17:41;5.25;;;2.17;;
5696;SDS011;2873;50.966;7.210;2024-03-23T04:20:08;4.57;;;1.80;;
5696;SDS011;2873;50.966;7.210;2024-03-23T04:22:36;5.90;;;2.20;;
5696;SDS011;2873;50.966;7.210;2024-03-23T04:25:02;6.00;;;1.90;;
5696;SDS011;2873;50.966;7.210;2024-03-23T04:27:31;6.00;;;1.60;;
5696;SDS011;2873;50.966;7.210;2024-03-23T04:29:57;3.90;;;1.80;;
5696;SDS011;2873;50.966;7.210;2024-03-23T04:32:23;5.47;;;1.85;;
5696;SDS011;2873;50.966;7.210;2024-03-23T04:34:48;5.00;;;1.40;;
5696;SDS011;2873;50.966;7.210;2024-03-23T04:37:14;8.63;;;2.22;;
5696;SDS011;2873;50.966;7.210;2024-03-23T04:39:41;8.77;;;3.90;;
5696;SDS011;2873;50.966;7.210;2024-03-23T04:42:07;4.70;;;2.60;;
5696;SDS011;2873;50.966;7.210;2024-03-23T04:44:32;5.50;;;1.80;;
5696;SDS011;2873;50.966;7.210;2024-03-23T04:46:58;9.77;;;2.40;;
5696;SDS011;2873;50.966;7.210;2024-03-23T04:49:23;7.00;;;2.08;;
5696;SDS011;2873;50.966;7.210;2024-03-23T04:51:49;5.83;;;2.00;;
5696;SDS011;2873;50.966;7.210;2024-03-23T04:54:14;4.38;;;2.25;;
5696;SDS011;2873;50.966;7.210;2024-03-23T04:56:40;10.90;;;2.70;;
5696;SDS011;2873;50.966;7.210;2024-03-23T04:59:07;5.03;;;2.50;;
5696;SDS011;2873;50.966;7.210;2024-03-23T05:01:32;6.80;;;2.97;;
5696;SDS011;2873;50.966;7.210;2024-03-23T05:03:58;9.07;;;3.03;;
5696;SDS011;2873;50.966;7.210;2024-03-23T05:06:24;8.32;;;3.00;;
5696;SDS011;2873;50.966;7.210;2024-03-23T05:08:50;12.00;;;3.75;;
5696;SDS011;2873;50.966;7.210;2024-03-23T05:11:16;6.90;;;3.58;;
5696;SDS011;2873;50.966;7.210;2024-03-23T05:13:41;8.03;;;3.37;;
5696;SDS011;2873;50.966;7.210;2024-03-23T05:16:07;8.27;;;3.40;;
5696;SDS011;2873;50.966;7.210;2024-03-23T05:18:33;7.80;;;3.30;;
5696;SDS011;2873;50.966;7.210;2024-03-23T05:20:59;8.23;;;3.83;;
5696;SDS011;2873;50.966;7.210;2024-03-23T05:23:25;7.97;;;3.45;;
5696;SDS011;2873;50.966;7.210;2024-03-23T05:25:51;8.98;;;3.80;;
5696;SDS011;2873;50.966;7.210;2024-03-23T05:28:17;7.72;;;3.50;;
5696;SDS011;2873;50.966;7.210;2024-03-23T05:30:43;7.20;;;3.90;;
5696;SDS011;2873;50.966;7.210;2024-03-23T05:33:09;11.48;;;4.90;;
5696;SDS011;2873;50.966;7.210;2024-03-23T05:35:34;13.33;;;4.60;;
5696;SDS011;2873;50.966;7.210;2024-03-23T05:38:00;8.15;;;4.00;;
5696;SDS011;2873;50.966;7.210;2024-03-23T05:40:26;10.13;;;4.30;;
5696;SDS011;2873;50.966;7.210;2024-03-23T05:42:52;7.63;;;4.73;;
5696;SDS011;2873;50.966;7.210;2024-03-23T05:45:18;11.07;;;4.67;;
5696;SDS011;2873;50.966;7.210;2024-03-23T05:47:44;10.40;;;4.68;;
5696;SDS011;2873;50.966;7.210;2024-03-23T05:50:10;13.30;;;4.30;;
5696;SDS011;2873;50.966;7.210;2024-03-23T05:52:37;10.45;;;3.80;;
5696;SDS011;2873;50.966;7.210;2024-03-23T05:55:04;7.75;;;4.15;;
5696;SDS011;2873;50.966;7.210;2024-03-23T05:57:30;8.02;;;3.90;;
5696;SDS011;2873;50.966;7.210;2024-03-23T05:59:55;7.60;;;3.83;;
5696;SDS011;2873;50.966;7.210;2024-03-23T06:02:21;9.37;;;3.50;;
5696;SDS011;2873;50.966;7.210;2024-03-23T06:04:47;8.10;;;3.70;;
5696;SDS011;2873;50.966;7.210;2024-03-23T06:07:12;9.27;;;3.50;;
5696;SDS011;2873;50.966;7.210;2024-03-23T06:09:39;8.68;;;3.70;;
5696;SDS011;2873;50.966;7.210;2024-03-23T06:12:08;7.95;;;3.38;;
5696;SDS011;2873;50.966;7.210;2024-03-23T06:14:34;5.70;;;2.90;;
5696;SDS011;2873;50.966;7.210;2024-03-23T06:17:00;7.55;;;3.13;;
5696;SDS011;2873;50.966;7.210;2024-03-23T06:19:26;7.60;;;3.22;;
5696;SDS011;2873;50.966;7.210;2024-03-23T06:21:52;9.47;;;3.67;;
5696;SDS011;2873;50.966;7.210;2024-03-23T06:24:21;10.57;;;3.20;;
5696;SDS011;2873;50.966;7.210;2024-03-23T06:26:47;7.50;;;3.08;;
5696;SDS011;2873;50.966;7.210;2024-03-23T06:29:12;6.88;;;2.80;;
5696;SDS011;2873;50.966;7.210;2024-03-23T06:31:38;11.77;;;3.00;;
5696;SDS011;2873;50.966;7.210;2024-03-23T06:34:04;8.15;;;3.10;;
5696;SDS011;2873;50.966;7.210;2024-03-23T06:36:29;8.47;;;3.13;;
5696;SDS011;2873;50.966;7.210;2024-03-23T06:38:55;9.65;;;2.60;;
5696;SDS011;2873;50.966;7.210;2024-03-23T06:41:21;10.47;;;3.10;;
5696;SDS011;2873;50.966;7.210;2024-03-23T06:43:47;13.07;;;3.03;;
5696;SDS011;2873;50.966;7.210;2024-03-23T06:46:13;8.80;;;2.60;;
5696;SDS011;2873;50.966;7.210;2024-03-23T06:48:38;7.03;;;2.87;;
5696;SDS011;2873;50.966;7.210;2024-03-23T06:51:04;5.90;;;2.30;;
5696;SDS011;2873;50.966;7.210;2024-03-23T06:53:31;8.90;;;3.10;;
5696;SDS011;2873;50.966;7.210;2024-03-23T06:55:57;10.93;;;2.83;;
5696;SDS011;2873;50.966;7.210;2024-03-23T06:58:23;9.65;;;2.97;;
5696;SDS011;2873;50.966;7.210;2024-03-23T07:00:49;12.65;;;3.10;;
5696;SDS011;2873;50.966;7.210;2024-03-23T07:03:16;9.63;;;2.95;;
5696;SDS011;2873;50.966;7.210;2024-03-23T07:05:42;8.83;;;3.03;;
5696;SDS011;2873;50.966;7.210;2024-03-23T07:08:07;8.23;;;3.10;;
5696;SDS011;2873;50.966;7.210;2024-03-23T07:10:33;10.60;;;3.28;;
5696;SDS011;2873;50.966;7.210;2024-03-23T07:12:58;10.23;;;3.07;;
5696;SDS011;2873;50.966;7.210;2024-03-23T07:15:24;7.63;;;3.60;;
5696;SDS011;2873;50.966;7.210;2024-03-23T07:17:50;8.13;;;3.37;;
5696;SDS011;2873;50.966;7.210;2024-03-23T07:20:15;13.20;;;3.53;;
5696;SDS011;2873;50.966;7.210;2024-03-23T07:22:41;8.07;;;2.95;;
5696;SDS011;2873;50.966;7.210;2024-03-23T07:25:06;9.40;;;3.20;;
5696;SDS011;2873;50.966;7.210;2024-03-23T07:27:32;9.52;;;3.42;;
5696;SDS011;2873;50.966;7.210;2024-03-23T07:29:58;10.88;;;3.50;;
5696;SDS011;2873;50.966;7.210;2024-03-23T07:32:26;9.07;;;3.50;;
5696;SDS011;2873;50.966;7.210;2024-03-23T07:34:51;11.38;;;3.70;;
5696;SDS011;2873;50.966;7.210;2024-03-23T07:37:17;9.85;;;3.45;;
5696;SDS011;2873;50.966;7.210;2024-03-23T07:39:42;15.43;;;3.73;;
5696;SDS011;2873;50.966;7.210;2024-03-23T07:42:08;9.52;;;4.20;;
5696;SDS011;2873;50.966;7.210;2024-03-23T07:44:34;11.50;;;4.30;;
5696;SDS011;2873;50.966;7.210;2024-03-23T07:47:00;14.43;;;4.20;;
5696;SDS011;2873;50.966;7.210;2024-03-23T07:49:26;8.45;;;3.80;;
5696;SDS011;2873;50.966;7.210;2024-03-23T07:51:52;8.43;;;3.95;;
5696;SDS011;2873;50.966;7.210;2024-03-23T07:54:17;7.85;;;3.53;;
5696;SDS011;2873;50.966;7.210;2024-03-23T07:56:43;8.93;;;3.97;;
5696;SDS011;2873;50.966;7.210;2024-03-23T07:59:09;14.48;;;4.53;;
5696;SDS011;2873;50.966;7.210;2024-03-23T08:01:34;11.00;;;4.00;;
5696;SDS011;2873;50.966;7.210;2024-03-23T08:04:00;10.57;;;3.77;;
5696;SDS011;2873;50.966;7.210;2024-03-23T08:06:26;15.98;;;4.78;;
5696;SDS011;2873;50.966;7.210;2024-03-23T08:08:52;13.20;;;4.55;;
5696;SDS011;2873;50.966;7.210;2024-03-23T08:11:26;10.73;;;4.70;;
5696;SDS011;2873;50.966;7.210;2024-03-23T08:13:56;12.35;;;4.60;;
5696;SDS011;2873;50.966;7.210;2024-03-23T08:16:22;12.52;;;6.00;;
5696;SDS011;2873;50.966;7.210;2024-03-23T08:18:48;11.50;;;5.40;;
5696;SDS011;2873;50.966;7.210;2024-03-23T08:21:15;12.68;;;5.40;;
5696;SDS011;2873;50.966;7.210;2024-03-23T08:23:41;12.57;;;5.40;;
5696;SDS011;2873;50.966;7.210;2024-03-23T08:26:07;10.35;;;5.75;;
5696;SDS011;2873;50.966;7.210;2024-03-23T08:28:34;18.63;;;5.63;;
5696;SDS011;2873;50.966;7.210;2024-03-23T08:31:00;13.20;;;5.65;;
5696;SDS011;2873;50.966;7.210;2024-03-23T08:33:28;10.82;;;5.80;;
5696;SDS011;2873;50.966;7.210;2024-03-23T08:35:57;11.40;;;5.13;;
5696;SDS011;2873;50.966;7.210;2024-03-23T08:38:24;8.82;;;5.53;;
5696;SDS011;2873;50.966;7.210;2024-03-23T08:41:00;9.85;;;5.80;;
5696;SDS011;2873;50.966;7.210;2024-03-23T08:43:30;12.30;;;5.30;;
5696;SDS011;2873;50.966;7.210;2024-03-23T08:46:13;14.18;;;5.38;;
5696;SDS011;2873;50.966;7.210;2024-03-23T08:48:41;10.85;;;5.10;;
5696;SDS011;2873;50.966;7.210;2024-03-23T08:51:09;13.30;;;4.80;;
5696;SDS011;2873;50.966;7.210;2024-03-23T08:53:35;12.27;;;5.10;;
5696;SDS011;2873;50.966;7.210;2024-03-23T08:56:01;16.40;;;4.60;;
5696;SDS011;2873;50.966;7.210;2024-03-23T08:58:28;11.27;;;4.27;;
5696;SDS011;2873;50.966;7.210;2024-03-23T09:00:55;14.57;;;3.53;;
5696;SDS011;2873;50.966;7.210;2024-03-23T09:03:22;11.88;;;4.20;;
5696;SDS011;2873;50.966;7.210;2024-03-23T09:05:49;5.27;;;3.00;;
5696;SDS011;2873;50.966;7.210;2024-03-23T09:08:15;6.15;;;3.13;;
5696;SDS011;2873;50.966;7.210;2024-03-23T09:10:41;9.15;;;3.22;;
5696;SDS011;2873;50.966;7.210;2024-03-23T09:13:07;8.15;;;3.75;;
5696;SDS011;2873;50.966;7.210;2024-03-23T09:15:37;10.82;;;3.60;;
5696;SDS011;2873;50.966;7.210;2024-03-23T09:18:10;8.93;;;3.60;;
5696;SDS011;2873;50.966;7.210;2024-03-23T09:20:35;7.00;;;3.30;;
5696;SDS011;2873;50.966;7.210;2024-03-23T09:23:01;14.50;;;4.00;;
5696;SDS011;2873;50.966;7.210;2024-03-23T09:25:27;8.60;;;4.07;;
5696;SDS011;2873;50.966;7.210;2024-03-23T09:27:52;7.93;;;4.15;;
5696;SDS011;2873;50.966;7.210;2024-03-23T09:30:18;9.47;;;4.23;;
5696;SDS011;2873;50.966;7.210;2024-03-23T09:32:44;6.65;;;3.63;;
5696;SDS011;2873;50.966;7.210;2024-03-23T09:35:10;12.00;;;3.80;;
5696;SDS011;2873;50.966;7.210;2024-03-23T09:37:37;15.30;;;4.15;;
5696;SDS011;2873;50.966;7.210;2024-03-23T09:40:05;8.32;;;3.35;;
5696;SDS011;2873;50.966;7.210;2024-03-23T09:42:40;10.20;;;3.87;;
5696;SDS011;2873;50.966;7.210;2024-03-23T09:45:15;9.65;;;3.60;;
5696;SDS011;2873;50.966;7.210;2024-03-23T09:47:45;4.40;;;3.10;;
5696;SDS011;2873;50.966;7.210;2024-03-23T09:50:12;8.43;;;3.40;;
5696;SDS011;2873;50.966;7.210;2024-03-23T09:52:38;7.45;;;3.25;;
5696;SDS011;2873;50.966;7.210;2024-03-23T09:55:03;8.17;;;3.20;;
5696;SDS011;2873;50.966;7.210;2024-03-23T09:57:29;7.45;;;2.90;;
5696;SDS011;2873;50.966;7.210;2024-03-23T09:59:55;11.27;;;3.55;;
5696;SDS011;2873;50.966;7.210;2024-03-23T10:02:22;10.32;;;3.00;;
5696;SDS011;2873;50.966;7.210;2024-03-23T10:04:48;7.47;;;3.00;;
5696;SDS011;2873;50.966;7.210;2024-03-23T10:07:22;6.87;;;2.57;;
5696;SDS011;2873;50.966;7.210;2024-03-23T10:09:48;9.98;;;2.78;;
5696;SDS011;2873;50.966;7.210;2024-03-23T10:12:16;6.20;;;2.60;;
5696;SDS011;2873;50.966;7.210;2024-03-23T10:14:43;5.87;;;2.00;;
5696;SDS011;2873;50.966;7.210;2024-03-23T10:17:20;6.60;;;2.15;;
5696;SDS011;2873;50.966;7.210;2024-03-23T10:19:51;11.55;;;2.40;;
5696;SDS011;2873;50.966;7.210;2024-03-23T10:22:18;7.05;;;2.17;;
5696;SDS011;2873;50.966;7.210;2024-03-23T10:24:48;4.57;;;2.30;;
5696;SDS011;2873;50.966;7.210;2024-03-23T10:27:23;6.77;;;1.93;;
5696;SDS011;2873;50.966;7.210;2024-03-23T10:29:49;4.80;;;1.98;;
5696;SDS011;2873;50.966;7.210;2024-03-23T10:32:15;5.18;;;2.53;;
5696;SDS011;2873;50.966;7.210;2024-03-23T10:34:42;7.50;;;2.25;;
5696;SDS011;2873;50.966;7.210;2024-03-23T10:37:08;6.82;;;2.10;;
5696;SDS011;2873;50.966;7.210;2024-03-23T10:39:34;3.38;;;1.60;;
5696;SDS011;2873;50.966;7.210;2024-03-23T10:42:08;3.65;;;1.65;;
5696;SDS011;2873;50.966;7.210;2024-03-23T10:44:35;3.30;;;1.70;;
5696;SDS011;2873;50.966;7.210;2024-03-23T10:47:01;4.60;;;1.27;;
5696;SDS011;2873;50.966;7.210;2024-03-23T10:49:34;4.30;;;1.60;;
5696;SDS011;2873;50.966;7.210;2024-03-23T10:52:04;3.35;;;1.30;;
5696;SDS011;2873;50.966;7.210;2024-03-23T10:54:31;6.05;;;1.70;;
5696;SDS011;2873;50.966;7.210;2024-03-23T10:57:08;5.47;;;1.40;;
5696;SDS011;2873;50.966;7.210;2024-03-23T10:59:37;3.10;;;1.48;;
5696;SDS011;2873;50.966;7.210;2024-03-23T11:02:04;3.92;;;1.40;;
5696;SDS011;2873;50.966;7.210;2024-03-23T11:04:33;5.13;;;1.50;;
5696;SDS011;2873;50.966;7.210;2024-03-23T11:09:48;3.05;;;1.63;;
5696;SDS011;2873;50.966;7.210;2024-03-23T11:14:48;1.55;;;0.90;;
5696;SDS011;2873;50.966;7.210;2024-03-23T11:17:22;1.90;;;1.08;;
5696;SDS011;2873;50.966;7.210;2024-03-23T11:19:59;4.88;;;1.00;;
5696;SDS011;2873;50.966;7.210;2024-03-23T11:22:37;2.33;;;1.13;;
5696;SDS011;2873;50.966;7.210;2024-03-23T11:25:14;0.82;;;0.80;;
5696;SDS011;2873;50.966;7.210;2024-03-23T11:27:45;0.98;;;0.80;;
5696;SDS011;2873;50.966;7.210;2024-03-23T11:32:37;1.85;;;1.20;;
5696;SDS011;2873;50.966;7.210;2024-03-23T11:35:03;4.60;;;2.33;;
5696;SDS011;2873;50.966;7.210;2024-03-23T11:37:28;1.75;;;1.20;;
5696;SDS011;2873;50.966;7.210;2024-03-23T11:39:54;2.90;;;1.50;;
5696;SDS011;2873;50.966;7.210;2024-03-23T11:42:19;4.30;;;1.60;;
5696;SDS011;2873;50.966;7.210;2024-03-23T11:44:46;2.42;;;1.50;;
5696;SDS011;2873;50.966;7.210;2024-03-23T11:47:12;2.80;;;1.60;;
5696;SDS011;2873;50.966;7.210;2024-03-23T11:49:38;3.90;;;2.10;;
5696;SDS011;2873;50.966;7.210;2024-03-23T11:52:06;1.80;;;1.50;;
5696;SDS011;2873;50.966;7.210;2024-03-23T11:54:32;2.53;;;1.40;;
5696;SDS011;2873;50.966;7.210;2024-03-23T11:57:07;3.90;;;2.03;;
5696;SDS011;2873;50.966;7.210;2024-03-23T12:02:09;3.50;;;1.10;;
5696;SDS011;2873;50.966;7.210;2024-03-23T12:04:36;1.80;;;1.10;;
5696;SDS011;2873;50.966;7.210;2024-03-23T12:07:36;2.30;;;0.77;;
5696;SDS011;2873;50.966;7.210;2024-03-23T12:10:04;1.40;;;0.80;;
5696;SDS011;2873;50.966;7.210;2024-03-23T12:12:31;2.45;;;1.40;;
5696;SDS011;2873;50.966;7.210;2024-03-23T12:15:07;1.20;;;1.00;;
5696;SDS011;2873;50.966;7.210;2024-03-23T12:17:33;3.80;;;1.70;;
5696;SDS011;2873;50.966;7.210;2024-03-23T12:20:00;1.10;;;1.00;;
5696;SDS011;2873;50.966;7.210;2024-03-23T12:22:26;2.00;;;0.80;;
5696;SDS011;2873;50.966;7.210;2024-03-23T12:24:52;3.30;;;1.30;;
5696;SDS011;2873;50.966;7.210;2024-03-23T12:27:17;1.90;;;1.10;;
5696;SDS011;2873;50.966;7.210;2024-03-23T12:29:43;2.20;;;1.27;;
5696;SDS011;2873;50.966;7.210;2024-03-23T12:32:10;3.70;;;1.45;;
5696;SDS011;2873;50.966;7.210;2024-03-23T12:34:37;2.03;;;1.17;;
5696;SDS011;2873;50.966;7.210;2024-03-23T12:37:02;2.50;;;1.43;;
5696;SDS011;2873;50.966;7.210;2024-03-23T12:39:28;2.60;;;1.20;;
5696;SDS011;2873;50.966;7.210;2024-03-23T12:41:53;2.92;;;1.58;;
5696;SDS011;2873;50.966;7.210;2024-03-23T12:44:19;1.80;;;1.70;;
5696;SDS011;2873;50.966;7.210;2024-03-23T12:46:45;1.20;;;1.10;;
5696;SDS011;2873;50.966;7.210;2024-03-23T12:49:10;3.60;;;1.30;;
5696;SDS011;2873;50.966;7.210;2024-03-23T12:51:36;2.97;;;2.13;;
5696;SDS011;2873;50.966;7.210;2024-03-23T12:54:02;2.40;;;1.10;;
5696;SDS011;2873;50.966;7.210;2024-03-23T12:56:28;4.90;;;1.90;;
5696;SDS011;2873;50.966;7.210;2024-03-23T12:58:54;2.33;;;1.50;;
5696;SDS011;2873;50.966;7.210;2024-03-23T13:01:22;3.73;;;1.07;;
5696;SDS011;2873;50.966;7.210;2024-03-23T13:03:50;2.75;;;1.23;;
5696;SDS011;2873;50.966;7.210;2024-03-23T13:06:16;1.20;;;1.10;;
5696;SDS011;2873;50.966;7.210;2024-03-23T13:08:46;2.00;;;0.90;;
5696;SDS011;2873;50.966;7.210;2024-03-23T13:11:12;1.80;;;1.10;;
5696;SDS011;2873;50.966;7.210;2024-03-23T13:13:38;0.77;;;0.70;;
5696;SDS011;2873;50.966;7.210;2024-03-23T13:16:05;0.70;;;0.57;;
5696;SDS011;2873;50.966;7.210;2024-03-23T13:18:31;1.20;;;0.77;;
5696;SDS011;2873;50.966;7.210;2024-03-23T13:20:57;2.40;;;0.70;;
5696;SDS011;2873;50.966;7.210;2024-03-23T13:23:23;1.08;;;0.50;;
5696;SDS011;2873;50.966;7.210;2024-03-23T13:25:52;1.90;;;0.90;;
5696;SDS011;2873;50.966;7.210;2024-03-23T13:28:21;1.40;;;0.80;;
5696;SDS011;2873;50.966;7.210;2024-03-23T13:33:16;1.03;;;0.93;;
5696;SDS011;2873;50.966;7.210;2024-03-23T13:35:48;2.53;;;1.10;;
5696;SDS011;2873;50.966;7.210;2024-03-23T13:38:17;1.88;;;1.20;;
5696;SDS011;2873;50.966;7.210;2024-03-23T13:40:50;1.60;;;1.20;;
5696;SDS011;2873;50.966;7.210;2024-03-23T13:43:19;1.60;;;1.50;;
5696;SDS011;2873;50.966;7.210;2024-03-23T13:45:49;1.48;;;1.20;;
5696;SDS011;2873;50.966;7.210;2024-03-23T13:48:22;2.58;;;1.00;;
5696;SDS011;2873;50.966;7.210;2024-03-23T13:50:59;2.30;;;1.42;;
5696;SDS011;2873;50.966;7.210;2024-03-23T13:53:25;3.50;;;1.13;;
5696;SDS011;2873;50.966;7.210;2024-03-23T13:55:50;4.83;;;2.30;;
5696;SDS011;2873;50.966;7.210;2024-03-23T13:58:16;2.60;;;1.83;;
5696;SDS011;2873;50.966;7.210;2024-03-23T14:00:42;3.45;;;2.45;;
5696;SDS011;2873;50.966;7.210;2024-03-23T14:03:08;3.80;;;2.00;;
5696;SDS011;2873;50.966;7.210;2024-03-23T14:05:34;1.48;;;1.38;;
5696;SDS011;2873;50.966;7.210;2024-03-23T14:08:00;1.80;;;1.70;;
5696;SDS011;2873;50.966;7.210;2024-03-23T14:10:25;2.38;;;2.15;;
5696;SDS011;2873;50.966;7.210;2024-03-23T14:12:52;1.77;;;1.67;;
5696;SDS011;2873;50.966;7.210;2024-03-23T14:15:18;2.20;;;1.80;;
5696;SDS011;2873;50.966;7.210;2024-03-23T14:17:43;3.20;;;1.87;;
5696;SDS011;2873;50.966;7.210;2024-03-23T14:20:09;4.85;;;1.80;;
5696;SDS011;2873;50.966;7.210;2024-03-23T14:22:36;1.80;;;1.52;;
5696;SDS011;2873;50.966;7.210;2024-03-23T14:25:02;1.30;;;1.20;;
5696;SDS011;2873;50.966;7.210;2024-03-23T14:27:28;1.20;;;1.00;;
5696;SDS011;2873;50.966;7.210;2024-03-23T14:29:54;2.92;;;1.00;;
5696;SDS011;2873;50.966;7.210;2024-03-23T14:32:21;1.38;;;1.13;;
5696;SDS011;2873;50.966;7.210;2024-03-23T14:34:46;1.70;;;0.90;;
5696;SDS011;2873;50.966;7.210;2024-03-23T14:37:12;0.90;;;0.90;;
5696;SDS011;2873;50.966;7.210;2024-03-23T14:39:37;2.50;;;0.90;;
5696;SDS011;2873;50.966;7.210;2024-03-23T14:42:06;2.72;;;0.90;;
5696;SDS011;2873;50.966;7.210;2024-03-23T14:44:33;1.70;;;1.10;;
5696;SDS011;2873;50.966;7.210;2024-03-23T14:46:59;3.40;;;0.90;;
5696;SDS011;2873;50.966;7.210;2024-03-23T14:49:24;2.50;;;0.80;;
5696;SDS011;2873;50.966;7.210;2024-03-23T14:51:51;2.40;;;0.90;;
5696;SDS011;2873;50.966;7.210;2024-03-23T14:54:16;2.42;;;1.20;;
5696;SDS011;2873;50.966;7.210;2024-03-23T14:56:42;1.40;;;1.10;;
5696;SDS011;2873;50.966;7.210;2024-03-23T14:59:07;3.80;;;1.30;;
5696;SDS011;2873;50.966;7.210;2024-03-23T15:01:33;1.70;;;1.20;;
5696;SDS011;2873;50.966;7.210;2024-03-23T15:03:59;2.10;;;1.40;;
5696;SDS011;2873;50.966;7.210;2024-03-23T15:06:25;2.00;;;1.60;;
5696;SDS011;2873;50.966;7.210;2024-03-23T15:08:50;1.40;;;1.30;;
5696;SDS011;2873;50.966;7.210;2024-03-23T15:11:16;3.35;;;1.17;;
5696;SDS011;2873;50.966;7.210;2024-03-23T15:13:44;2.20;;;1.50;;
5696;SDS011;2873;50.966;7.210;2024-03-23T15:16:09;0.80;;;0.63;;
5696;SDS011;2873;50.966;7.210;2024-03-23T15:18:35;0.80;;;0.80;;
5696;SDS011;2873;50.966;7.210;2024-03-23T15:21:01;0.77;;;0.73;;
5696;SDS011;2873;50.966;7.210;2024-03-23T15:23:30;2.20;;;0.80;;
5696;SDS011;2873;50.966;7.210;2024-03-23T15:25:56;0.60;;;0.60;;
5696;SDS011;2873;50.966;7.210;2024-03-23T15:28:23;4.82;;;1.00;;
5696;SDS011;2873;50.966;7.210;2024-03-23T15:30:49;0.82;;;0.70;;
5696;SDS011;2873;50.966;7.210;2024-03-23T15:33:15;2.28;;;0.70;;
5696;SDS011;2873;50.966;7.210;2024-03-23T15:35:40;2.90;;;0.80;;
5696;SDS011;2873;50.966;7.210;2024-03-23T15:38:06;1.00;;;0.70;;
5696;SDS011;2873;50.966;7.210;2024-03-23T15:40:32;1.70;;;0.70;;
5696;SDS011;2873;50.966;7.210;2024-03-23T15:42:58;2.30;;;1.40;;
5696;SDS011;2873;50.966;7.210;2024-03-23T15:45:23;3.60;;;0.80;;
5696;SDS011;2873;50.966;7.210;2024-03-23T15:47:49;1.10;;;0.70;;
5696;SDS011;2873;50.966;7.210;2024-03-23T15:50:14;2.20;;;0.90;;
5696;SDS011;2873;50.966;7.210;2024-03-23T15:52:40;1.37;;;0.70;;
5696;SDS011;2873;50.966;7.210;2024-03-23T15:55:06;3.10;;;0.90;;
5696;SDS011;2873;50.966;7.210;2024-03-23T15:57:32;2.73;;;0.80;;
5696;SDS011;2873;50.966;7.210;2024-03-23T15:59:58;1.80;;;0.80;;
5696;SDS011;2873;50.966;7.210;2024-03-23T16:02:24;0.93;;;0.90;;
5696;SDS011;2873;50.966;7.210;2024-03-23T16:04:50;4.20;;;1.00;;
5696;SDS011;2873;50.966;7.210;2024-03-23T16:07:15;1.30;;;0.80;;
5696;SDS011;2873;50.966;7.210;2024-03-23T16:09:41;1.50;;;0.90;;
5696;SDS011;2873;50.966;7.210;2024-03-23T16:12:06;1.10;;;0.87;;
5696;SDS011;2873;50.966;7.210;2024-03-23T16:14:32;3.20;;;1.30;;
5696;SDS011;2873;50.966;7.210;2024-03-23T16:16:58;1.25;;;0.70;;